This is the latest recevied weather packets stored in our database for station/object BMCB-14. If no packets are shown the sender has not sent any weather packets the latest 10 day(s).
| Time | Temp. | Humidity | Pressure | Rain* | Wind** | Luminosity | Snow |
|---|---|---|---|---|---|---|---|
| 1777952445 | 10° C | 10% | 1011.9 hPa | 0 mm | - | - | - |
| 1777945246 | 10° C | 10% | 1012.5 hPa | 0 mm | - | - | - |
| 1777938048 | 11.11° C | 99% | 1013.2 hPa | 0 mm | - | 0 W/m² | - |
| 1777936250 | 11.11° C | 99% | 1013.5 hPa | 0 mm | - | 0 W/m² | - |
| 1777934449 | 11.11° C | 98% | 1013.7 hPa | 0 mm | - | 0 W/m² | - |
| 1777933250 | 11.11° C | 98% | 1013.8 hPa | 0 mm | - | 0 W/m² | - |
| 1777932650 | 11.11° C | 98% | 1013.9 hPa | 0 mm | - | 0 W/m² | - |
| 1777932047 | 11.11° C | 99% | 1014 hPa | 0 mm | - | 0 W/m² | - |
| 1777931451 | 11.11° C | 99% | 1014.1 hPa | 0 mm | - | 0 W/m² | - |
| 1777930851 | 11.11° C | 99% | 1014.2 hPa | 0 mm | - | 0 W/m² | - |
| 1777929049 | 11.67° C | 99% | 1014.3 hPa | 0 mm | - | 0 W/m² | - |
| 1777926649 | 11.67° C | 98% | 1014.4 hPa | 0 mm | - | 0 W/m² | - |
| 1777920651 | 12.78° C | 91% | 1013.9 hPa | 0 mm | - | 8 W/m² | - |
| 1777918251 | 13.33° C | 90% | 1013.9 hPa | 0 mm | - | 76 W/m² | - |
| 1777917649 | 13.33° C | 91% | 1013.9 hPa | 0 mm | - | 82 W/m² | - |
| 1777912246 | 13.89° C | 91% | 1014.3 hPa | 0 mm | - | 150 W/m² | - |
| 1777906847 | 13.33° C | 93% | 1014.6 hPa | 0.51 mm | - | 206 W/m² | - |
| 1777904447 | 13.33° C | 94% | 1014.7 hPa | 0.76 mm | - | 210 W/m² | - |
| 1777903845 | 13.89° C | 93% | 1014.7 hPa | 0.76 mm | - | 184 W/m² | - |
| 1777899051 | 14.44° C | 90% | 1015.1 hPa | 0.25 mm | - | 154 W/m² | - |
| 1777897845 | 15° C | 88% | 1015.1 hPa | 0 mm | - | 222 W/m² | - |
| 1777896646 | 15° C | 88% | 1015 hPa | 0 mm | - | 238 W/m² | - |
| 1777892447 | 14.44° C | 90% | 1015.4 hPa | 0 mm | - | 290 W/m² | - |
| 1777889447 | 13.89° C | 90% | 1015.6 hPa | 0 mm | - | 202 W/m² | - |
| 1777884049 | 13.89° C | 91% | 1015.5 hPa | 0 mm | - | 166 W/m² | - |
* Rain latest hour (hover to see other rain measurements)
** Current wind speed in m/s (hover to see current wind gust speed)